Time;durP1;ratioP1;P1;durP2;ratioP2;P2;SDS_P1;SDS_P2;PMS_P1;PMS_P2;Temp;Humidity;BMP_temperature;BMP_pressure;BME280_temperature;BME280_humidity;BME280_pressure;Samples;Min_cycle;Max_cycle;Signal;HPM_P1;HPM_P2
2022/08/12 00:44:55;;;;;;;10.13;6.90;;;;;;;23.70;100.00;99966.91;1742546;80;21449;-56
2022/08/12 00:47:22;;;;;;;7.30;6.80;;;;;;;23.75;100.00;99973.67;1763278;80;21046;-56
2022/08/12 00:49:48;;;;;;;7.93;7.07;;;;;;;23.78;100.00;99973.41;1755991;80;22099;-56
2022/08/12 00:52:16;;;;;;;8.25;7.45;;;;;;;23.80;100.00;99979.51;1762574;80;21783;-56
2022/08/12 00:54:49;;;;;;;8.55;6.62;;;;;;;23.86;100.00;99980.27;1750645;80;21563;-56
2022/08/12 00:57:19;;;;;;;7.72;7.03;;;;;;;23.86;100.00;99982.95;1764235;80;21488;-56
2022/08/12 00:59:49;;;;;;;7.70;6.90;;;;;;;23.84;100.00;99976.38;1768534;79;21471;-56
2022/08/12 01:02:35;;;;;;;7.50;6.80;;;;;;;23.86;100.00;99981.11;1759810;80;21782;-56
2022/08/12 01:13:28;;;;;;;7.78;6.53;;;;;;;23.93;100.00;99977.87;1760658;80;21551;-57
2022/08/12 01:15:58;;;;;;;9.45;6.65;;;;;;;23.99;100.00;99974.10;1760436;80;21833;-56
2022/08/12 01:18:28;;;;;;;12.40;5.87;;;;;;;24.01;100.00;99973.96;1765986;80;21540;-57
2022/08/12 01:21:40;;;;;;;8.95;6.30;;;;;;;24.06;100.00;99977.91;1764855;79;21548;-57
2022/08/12 01:24:16;;;;;;;7.03;6.10;;;;;;;24.05;100.00;99976.70;1753397;80;20954;-56
2022/08/12 01:26:46;;;;;;;6.90;6.30;;;;;;;24.08;100.00;99972.40;1758154;80;20923;-57
2022/08/12 01:29:15;;;;;;;6.60;5.87;;;;;;;24.08;100.00;99977.77;1765428;80;21838;-57
2022/08/12 01:31:42;;;;;;;12.28;6.97;;;;;;;24.15;100.00;99972.65;1752394;80;21499;-57
2022/08/12 01:34:11;;;;;;;6.72;6.10;;;;;;;24.20;100.00;99966.35;1756459;80;21452;-57
2022/08/12 01:36:46;;;;;;;6.60;5.58;;;;;;;24.20;100.00;99962.33;1762179;79;21428;-57
2022/08/12 01:39:14;;;;;;;12.65;5.87;;;;;;;24.24;100.00;99964.59;1738464;80;21558;-55
2022/08/12 01:41:51;;;;;;;7.60;6.80;;;;;;;24.28;100.00;99967.33;1756664;79;21923;-55
2022/08/12 01:44:20;;;;;;;6.33;5.83;;;;;;;24.29;100.00;99963.63;1742952;80;21595;-57
2022/08/12 01:47:12;;;;;;;7.30;5.92;;;;;;;24.27;100.00;99962.09;1729911;80;21542;-58
2022/08/12 01:49:47;;;;;;;7.60;6.00;;;;;;;24.24;100.00;99956.53;1754885;80;21401;-56
2022/08/12 01:52:28;;;;;;;8.65;5.65;;;;;;;24.29;100.00;99956.08;1748110;80;21483;-57
2022/08/12 01:54:55;;;;;;;6.97;6.08;;;;;;;24.36;100.00;99950.98;1735096;80;21800;-57
2022/08/12 01:57:38;;;;;;;6.83;5.47;;;;;;;24.36;100.00;99950.98;1759639;80;21479;-57
2022/08/12 02:00:11;;;;;;;6.65;5.67;;;;;;;24.34;100.00;99951.12;1696225;83;21499;-58
2022/08/12 02:02:58;;;;;;;6.83;6.15;;;;;;;24.31;100.00;99940.66;1757511;80;21436;-58
2022/08/12 02:12:00;;;;;;;9.38;6.15;;;;;;;24.16;100.00;99946.99;1755322;80;21502;-57
2022/08/12 02:14:59;;;;;;;7.03;6.10;;;;;;;24.10;100.00;99946.23;1763538;79;22097;-57
2022/08/12 02:17:38;;;;;;;8.05;5.97;;;;;;;24.08;100.00;99949.06;1737152;82;21436;-57
2022/08/12 02:20:20;;;;;;;9.33;5.87;;;;;;;24.01;100.00;99941.73;1727396;80;21451;-57
2022/08/12 02:22:46;;;;;;;11.78;5.67;;;;;;;23.98;100.00;99946.91;1748704;80;21387;-56
2022/08/12 02:25:37;;;;;;;11.20;5.37;;;;;;;24.06;100.00;99952.39;1769432;78;21534;-57
2022/08/12 02:28:03;;;;;;;6.67;5.97;;;;;;;24.06;100.00;99952.39;1763504;79;21427;-57
2022/08/12 02:30:32;;;;;;;8.27;5.90;;;;;;;24.08;100.00;99945.03;1755741;80;21530;-56
2022/08/12 02:33:00;;;;;;;10.08;5.58;;;;;;;24.09;100.00;99944.06;1755752;79;21590;-56
2022/08/12 02:35:34;;;;;;;6.50;5.42;;;;;;;24.12;100.00;99942.91;1760930;79;21794;-56
2022/08/12 02:38:04;;;;;;;6.37;5.37;;;;;;;24.11;100.00;99941.23;1762683;80;21589;-55
2022/08/12 02:40:35;;;;;;;10.18;5.60;;;;;;;24.10;100.00;99939.52;1766047;79;21727;-57
2022/08/12 02:43:28;;;;;;;7.12;5.80;;;;;;;24.09;100.00;99940.03;1755644;79;21539;-56
2022/08/12 02:46:04;;;;;;;6.35;5.50;;;;;;;24.15;100.00;99935.05;1755391;80;21413;-57
2022/08/12 02:48:59;;;;;;;9.30;6.67;;;;;;;24.15;100.00;99935.05;1756190;79;21968;-56
2022/08/12 02:51:33;;;;;;;8.70;5.85;;;;;;;24.16;100.00;99936.75;1747262;80;20947;-56
2022/08/12 02:54:05;;;;;;;9.38;6.45;;;;;;;24.08;100.00;99930.27;1759106;79;21550;-57
2022/08/12 02:56:36;;;;;;;8.50;5.55;;;;;;;24.06;100.00;99929.56;1759271;80;21679;-56
2022/08/12 02:59:03;;;;;;;6.67;6.17;;;;;;;24.02;100.00;99932.70;1767909;79;21585;-57
2022/08/12 03:01:32;;;;;;;9.00;6.50;;;;;;;23.94;100.00;99936.59;1693800;83;21759;-57
2022/08/12 03:04:03;;;;;;;7.85;7.05;;;;;;;23.92;100.00;99935.38;1707686;81;21617;-57
2022/08/12 03:06:42;;;;;;;8.73;6.37;;;;;;;23.88;100.00;99939.36;1684502;83;21542;-57
2022/08/12 03:09:14;;;;;;;7.42;6.83;;;;;;;23.89;100.00;99945.09;1764365;79;21448;-57
2022/08/12 03:11:48;;;;;;;7.42;6.47;;;;;;;23.85;100.00;99935.64;1745544;81;21487;-57
2022/08/12 03:14:17;;;;;;;7.67;6.15;;;;;;;23.83;100.00;99938.96;1762615;79;21882;-57
2022/08/12 03:16:49;;;;;;;14.73;6.50;;;;;;;23.89;100.00;99935.19;1767258;79;21404;-57
2022/08/12 03:19:20;;;;;;;8.25;6.35;;;;;;;23.89;100.00;99925.79;1775898;79;20997;-57
2022/08/12 03:21:50;;;;;;;9.48;6.75;;;;;;;23.87;100.00;99926.94;1768384;79;21443;-56
2022/08/12 03:24:17;;;;;;;9.60;6.75;;;;;;;23.83;100.00;99922.86;1774956;79;21014;-56
2022/08/12 03:26:44;;;;;;;7.15;6.53;;;;;;;23.83;100.00;99925.03;1761988;79;21797;-57
2022/08/12 03:29:11;;;;;;;8.80;6.95;;;;;;;23.86;100.00;99927.41;1769298;79;21435;-58
2022/08/12 03:31:37;;;;;;;12.03;7.10;;;;;;;23.87;100.00;99926.44;1704917;83;21495;-56
2022/08/12 03:34:11;;;;;;;9.73;6.40;;;;;;;23.89;100.00;99931.16;1694993;83;21527;-56
2022/08/12 03:36:39;;;;;;;7.50;6.22;;;;;;;23.95;100.00;99937.80;1709687;83;21557;-55
2022/08/12 03:42:24;;;;;;;7.42;6.17;;;;;;;24.01;100.00;99953.82;1730525;81;20986;-56
2022/08/12 04:01:58;;;;;;;9.60;6.20;;;;;;;24.00;100.00;99953.48;1734185;81;21471;-58
2022/08/12 04:04:32;;;;;;;11.03;6.77;;;;;;;24.00;100.00;99953.48;1689761;83;21613;-57
2022/08/12 04:07:09;;;;;;;7.33;6.80;;;;;;;24.04;100.00;99962.44;1728930;82;21803;-56
2022/08/12 04:09:38;;;;;;;8.23;6.85;;;;;;;24.01;100.00;99961.38;1734607;81;21546;-56
2022/08/12 04:14:52;;;;;;;11.50;6.25;;;;;;;24.07;100.00;99958.60;1684848;83;21539;-56
2022/08/12 04:17:18;;;;;;;9.98;6.50;;;;;;;24.08;100.00;99966.52;1679446;84;21531;-56
2022/08/12 04:19:46;;;;;;;7.83;7.10;;;;;;;24.10;100.00;99970.41;1756254;80;21777;-56
2022/08/12 04:22:14;;;;;;;8.33;6.67;;;;;;;24.15;100.00;99960.56;1745688;80;21447;-56
2022/08/12 04:24:43;;;;;;;7.42;6.55;;;;;;;24.14;100.00;99960.23;1755977;80;21557;-56
2022/08/12 04:27:10;;;;;;;7.22;6.58;;;;;;;24.10;100.00;99958.33;1736192;80;21543;-56
2022/08/12 04:29:38;;;;;;;9.28;6.28;;;;;;;24.10;100.00;99958.33;1763127;79;21395;-56
2022/08/12 04:32:05;;;;;;;;;;;;;;;24.12;100.00;99963.05;1753173;80;21762;-56
2022/08/12 04:34:32;;;;;;;8.88;6.55;;;;;;;24.14;100.00;99965.59;1752700;80;20511;-56
2022/08/12 04:36:59;;;;;;;7.87;6.97;;;;;;;24.14;100.00;99968.28;1743387;80;21454;-56
2022/08/12 04:39:26;;;;;;;7.00;6.40;;;;;;;24.19;100.00;99970.89;1756101;80;21396;-56
2022/08/12 04:41:52;;;;;;;7.42;6.78;;;;;;;24.27;100.00;99956.72;1747146;80;21566;-56
2022/08/12 04:44:19;;;;;;;7.37;6.70;;;;;;;24.27;100.00;99952.69;1751818;80;21886;-56
2022/08/12 04:46:46;;;;;;;8.85;6.42;;;;;;;24.34;100.00;99955.15;1757324;79;21452;-56
2022/08/12 04:49:12;;;;;;;14.20;6.92;;;;;;;24.39;100.00;99957.38;1753812;80;21547;-56
2022/08/12 04:51:39;;;;;;;10.95;7.08;;;;;;;24.51;100.00;99944.62;1754464;80;21444;-57
2022/08/12 04:54:06;;;;;;;7.60;6.67;;;;;;;24.61;100.00;99940.07;1748201;80;21539;-56
2022/08/12 04:56:32;;;;;;;9.63;6.58;;;;;;;24.73;100.00;99924.58;1751833;80;21990;-56
2022/08/12 04:58:59;;;;;;;7.85;6.60;;;;;;;24.88;99.86;99929.79;1756775;80;20962;-57
2022/08/12 05:01:29;;;;;;;9.68;6.83;;;;;;;24.97;98.74;99917.29;1754872;80;21488;-57
2022/08/12 05:03:56;;;;;;;7.58;6.72;;;;;;;25.09;98.37;99918.77;1764368;80;21412;-57
2022/08/12 05:06:24;;;;;;;8.33;6.72;;;;;;;25.18;97.50;99921.86;1761892;80;21532;-57
2022/08/12 05:08:54;;;;;;;7.17;6.47;;;;;;;25.23;96.77;99912.03;1765749;80;21762;-58
2022/08/12 05:11:24;;;;;;;7.42;6.70;;;;;;;25.28;95.68;99911.56;1764114;79;21494;-57
2022/08/12 05:13:55;;;;;;;6.95;6.33;;;;;;;25.30;96.33;99913.59;1762231;80;21544;-57
2022/08/12 05:16:23;;;;;;;10.23;7.20;;;;;;;25.27;95.84;99901.30;1761190;79;21579;-57
2022/08/12 05:18:50;;;;;;;7.70;6.55;;;;;;;25.24;95.84;99902.95;1760892;80;26799;-56
2022/08/12 05:21:16;;;;;;;10.03;7.08;;;;;;;25.27;95.87;99897.78;1745915;80;21806;-57
2022/08/12 05:23:43;;;;;;;7.67;7.00;;;;;;;25.24;95.89;99897.09;1758822;80;21571;-58
2022/08/12 05:26:09;;;;;;;9.50;7.25;;;;;;;25.26;95.85;99907.70;1749230;80;21809;-59
2022/08/12 05:28:36;;;;;;;7.92;6.95;;;;;;;25.35;95.89;99927.44;1760551;80;21511;-58
2022/08/12 05:31:03;;;;;;;12.98;7.35;;;;;;;25.42;95.93;99924.48;1762388;80;21048;-59
2022/08/12 05:33:39;;;;;;;7.78;7.10;;;;;;;25.52;94.75;99925.23;1765450;80;21610;-58
2022/08/12 05:36:13;;;;;;;7.90;7.20;;;;;;;25.53;93.50;99918.86;1751285;80;21499;-57
2022/08/12 05:38:57;;;;;;;8.00;7.30;;;;;;;25.54;93.15;99916.53;1750682;80;21557;-57
2022/08/12 05:41:33;;;;;;;8.98;7.30;;;;;;;25.56;92.62;99910.48;1752978;80;21454;-58
2022/08/12 05:44:03;;;;;;;7.67;6.87;;;;;;;25.61;92.43;99921.61;1758708;80;21542;-57
2022/08/12 05:46:30;;;;;;;7.72;6.97;;;;;;;25.62;92.37;99925.16;1757866;80;21569;-57
2022/08/12 05:49:00;;;;;;;8.95;6.95;;;;;;;25.69;92.38;99925.37;1758585;80;21463;-58
2022/08/12 05:51:30;;;;;;;7.58;6.90;;;;;;;25.76;92.35;99921.89;1763284;80;21534;-58
2022/08/12 05:53:58;;;;;;;11.65;7.58;;;;;;;25.80;91.96;99921.08;1762497;80;21431;-59
2022/08/12 05:56:34;;;;;;;9.90;6.95;;;;;;;25.86;91.44;99920.95;1754854;80;21022;-57
2022/08/12 05:59:02;;;;;;;8.18;7.35;;;;;;;25.89;91.61;99936.80;1752271;80;21869;-58
2022/08/12 06:01:30;;;;;;;9.73;6.50;;;;;;;25.93;91.79;99940.39;1762812;80;21568;-58
2022/08/12 06:03:56;;;;;;;7.83;7.15;;;;;;;25.96;90.75;99922.58;1753672;80;21466;-59
2022/08/12 06:06:23;;;;;;;9.20;7.42;;;;;;;25.96;90.00;99930.66;1751408;80;21496;-59
2022/08/12 06:08:52;;;;;;;9.23;7.80;;;;;;;26.02;90.07;99935.91;1745629;80;21538;-62
2022/08/12 06:11:20;;;;;;;11.55;6.80;;;;;;;26.04;89.14;99929.86;1747434;80;21743;-57
2022/08/12 06:13:47;;;;;;;8.13;7.40;;;;;;;26.09;88.96;99931.59;1753414;80;21581;-57
2022/08/12 06:16:17;;;;;;;8.53;7.60;;;;;;;26.15;88.71;99927.41;1748438;80;21459;-57
2022/08/12 06:18:43;;;;;;;8.88;7.95;;;;;;;26.12;88.06;99923.16;1749001;80;21535;-57
2022/08/12 06:21:12;;;;;;;9.23;7.42;;;;;;;26.11;88.14;99909.88;1751132;80;21534;-58
2022/08/12 06:23:39;;;;;;;14.43;7.70;;;;;;;26.16;88.37;99917.83;1746954;80;21801;-58
2022/08/12 06:26:10;;;;;;;10.10;7.75;;;;;;;26.20;87.72;99920.54;1757943;80;21037;-58
2022/08/12 06:28:35;;;;;;;8.43;7.62;;;;;;;26.18;87.87;99905.52;1758944;80;21514;-58
2022/08/12 06:31:02;;;;;;;8.15;7.45;;;;;;;26.14;87.80;99906.84;1750505;80;21492;-59
2022/08/12 06:33:29;;;;;;;8.40;7.60;;;;;;;26.15;87.82;99907.20;1758098;80;20978;-58
2022/08/12 06:35:56;;;;;;;14.90;8.05;;;;;;;26.16;88.24;99904.84;1752469;80;21752;-59
2022/08/12 06:38:26;;;;;;;10.15;7.03;;;;;;;26.30;88.68;99905.59;1754317;80;21613;-58
2022/08/12 06:43:42;;;;;;;11.08;7.65;;;;;;;26.29;87.64;99901.20;1760182;80;21558;-58
2022/08/12 06:46:10;;;;;;;;;;;;;;;26.34;87.32;99898.03;1758390;80;21412;-58
2022/08/12 06:48:37;;;;;;;10.35;7.90;;;;;;;26.39;87.27;99911.37;1753325;80;21726;-58
2022/08/12 06:51:04;;;;;;;8.13;7.40;;;;;;;26.37;87.09;99913.38;1755146;80;21550;-58
2022/08/12 06:53:31;;;;;;;8.58;7.85;;;;;;;26.33;87.02;99907.95;1750125;80;21479;-58
2022/08/12 06:55:59;;;;;;;9.95;8.00;;;;;;;26.34;87.01;99913.69;1761611;80;21524;-58
2022/08/12 06:58:30;;;;;;;12.88;7.80;;;;;;;26.34;86.79;99903.42;1761188;80;20979;-58
2022/08/12 07:00:58;;;;;;;8.60;7.95;;;;;;;26.23;86.95;99911.28;1755509;80;22069;-58
2022/08/12 07:03:27;;;;;;;;;;;;;;;26.25;87.33;99912.47;1762455;80;21486;-58
2022/08/12 07:06:04;;;;;;;9.98;7.78;;;;;;;26.24;87.56;99906.25;1756154;80;20467;-59
2022/08/12 07:08:32;;;;;;;8.63;7.87;;;;;;;26.22;87.51;99903.70;1748158;80;20998;-58
2022/08/12 07:11:05;;;;;;;9.00;8.10;;;;;;;26.25;87.26;99901.69;1751747;80;21464;-59
2022/08/12 07:13:41;;;;;;;9.50;8.13;;;;;;;26.29;86.63;99906.58;1754937;80;21658;-59
2022/08/12 07:16:07;;;;;;;9.53;8.35;;;;;;;26.36;86.52;99897.37;1758191;80;21424;-59
2022/08/12 07:18:34;;;;;;;11.83;8.20;;;;;;;26.35;87.25;99890.27;1755447;80;20982;-59
2022/08/12 07:21:02;;;;;;;10.55;8.83;;;;;;;26.40;86.92;99892.83;1758646;80;21477;-59
2022/08/12 07:23:34;;;;;;;17.60;9.40;;;;;;;26.54;86.58;99894.56;1756182;80;20990;-58
2022/08/12 07:26:04;;;;;;;11.70;8.93;;;;;;;26.58;85.45;99887.86;1752325;79;21781;-59
2022/08/12 07:28:34;;;;;;;14.98;8.10;;;;;;;26.60;86.45;99891.27;1761662;80;21483;-59
2022/08/12 07:31:07;;;;;;;11.78;8.50;;;;;;;26.71;86.60;99888.27;1752294;80;21435;-59
2022/08/12 07:33:39;;;;;;;8.90;8.00;;;;;;;26.91;85.42;99888.80;1750294;80;21547;-59
2022/08/12 07:36:09;;;;;;;10.72;8.53;;;;;;;27.04;85.11;99884.28;1760369;80;21479;-59
2022/08/12 07:38:43;;;;;;;10.32;8.05;;;;;;;27.20;83.57;99878.07;1751069;80;21828;-58
2022/08/12 07:41:21;;;;;;;13.72;8.03;;;;;;;27.40;82.85;99877.25;1750245;80;21581;-59
2022/08/12 07:43:58;;;;;;;11.90;9.08;;;;;;;27.55;81.42;99871.49;1749060;80;21594;-58
2022/08/12 07:46:30;;;;;;;9.30;8.33;;;;;;;27.69;80.57;99871.33;1749437;80;21113;-58
2022/08/12 07:49:04;;;;;;;9.45;8.05;;;;;;;27.82;80.34;99864.05;1741001;80;21094;-58
2022/08/12 07:51:31;;;;;;;11.97;8.98;;;;;;;28.02;79.11;99852.88;1756200;80;21830;-57
2022/08/12 07:53:59;;;;;;;10.20;8.05;;;;;;;28.18;78.95;99847.91;1754856;80;21506;-57
2022/08/12 07:56:26;;;;;;;;;;;;;;;28.30;78.01;99843.81;1749988;80;21689;-58
2022/08/12 07:58:53;;;;;;;9.93;9.03;;;;;;;28.34;76.09;99842.44;1755465;80;20422;-58
2022/08/12 08:01:21;;;;;;;11.38;9.60;;;;;;;28.41;77.19;99838.02;1755137;80;21460;-58
2022/08/12 08:06:41;;;;;;;15.45;9.18;;;;;;;28.43;74.68;99835.98;1738507;80;21062;-58
2022/08/12 08:09:15;;;;;;;11.38;9.45;;;;;;;28.41;73.60;99830.43;1750493;80;21413;-58
2022/08/12 08:14:31;;;;;;;13.05;8.48;;;;;;;28.19;74.34;99851.80;1747403;80;21648;-57
2022/08/12 08:16:59;;;;;;;14.20;9.28;;;;;;;28.11;74.49;99854.02;1751356;80;22119;-57
2022/08/12 08:19:27;;;;;;;9.35;8.65;;;;;;;28.06;74.84;99854.21;1732196;80;21510;-58
2022/08/12 08:21:55;;;;;;;13.62;9.00;;;;;;;28.11;75.10;99846.43;1760165;80;21522;-58
2022/08/12 08:24:24;;;;;;;13.83;9.23;;;;;;;28.18;75.48;99845.20;1753416;79;21573;-58
2022/08/12 08:26:55;;;;;;;9.30;8.40;;;;;;;28.26;75.65;99848.73;1752648;79;21630;-58
2022/08/12 08:29:22;;;;;;;11.57;8.60;;;;;;;28.36;75.21;99837.70;1759246;79;21731;-59
2022/08/12 08:31:53;;;;;;;10.98;8.63;;;;;;;28.47;75.56;99836.47;1760873;80;21479;-59
2022/08/12 08:34:18;;;;;;;10.88;9.70;;;;;;;28.59;74.59;99831.53;1759829;79;21898;-59
2022/08/12 08:36:46;;;;;;;16.52;8.83;;;;;;;28.71;73.43;99818.78;1759686;80;21502;-59
2022/08/12 08:39:15;;;;;;;10.00;9.00;;;;;;;28.74;73.11;99814.86;1760535;80;21532;-59
2022/08/12 08:44:27;;;;;;;12.07;8.65;;;;;;;28.83;72.43;99813.78;1761863;80;21673;-59
2022/08/12 08:46:54;;;;;;;9.63;8.83;;;;;;;28.95;72.65;99818.77;1751446;80;21460;-60
2022/08/12 08:49:22;;;;;;;10.25;9.10;;;;;;;29.05;71.39;99816.16;1759270;79;21601;-59
2022/08/12 08:51:48;;;;;;;11.60;9.33;;;;;;;29.08;71.26;99817.66;1759678;80;21433;-60
2022/08/12 08:54:15;;;;;;;13.68;8.48;;;;;;;29.15;71.66;99822.70;1740516;81;21783;-59
2022/08/12 08:56:48;;;;;;;11.38;8.70;;;;;;;29.23;71.15;99829.39;1713418;82;21582;-59
2022/08/12 08:59:18;;;;;;;11.45;9.28;;;;;;;29.39;70.04;99839.78;1710575;82;21446;-58
2022/08/12 09:01:45;;;;;;;13.58;9.25;;;;;;;29.41;69.48;99835.02;1687649;83;21546;-59
2022/08/12 09:04:12;;;;;;;12.37;9.28;;;;;;;29.57;69.43;99834.00;1692834;83;21017;-59
2022/08/12 09:06:40;;;;;;;18.27;9.55;;;;;;;29.68;68.93;99843.03;1683029;83;21826;-60
2022/08/12 09:09:07;;;;;;;15.72;10.20;;;;;;;29.70;67.76;99840.98;1714359;81;21482;-59
2022/08/12 09:14:19;;;;;;;9.60;8.85;;;;;;;29.85;66.30;99853.22;1696218;83;20579;-60
2022/08/12 09:16:48;;;;;;;10.48;9.30;;;;;;;29.89;66.27;99847.26;1708675;82;21575;-60
2022/08/12 09:19:16;;;;;;;14.98;9.23;;;;;;;29.87;65.41;99841.16;1758904;80;21786;-59
2022/08/12 09:21:46;;;;;;;14.75;9.58;;;;;;;29.83;66.18;99843.91;1760154;80;21483;-59
2022/08/12 09:24:17;;;;;;;10.03;9.15;;;;;;;29.88;66.16;99853.69;1756340;80;21546;-61
2022/08/12 09:26:47;;;;;;;14.07;8.60;;;;;;;29.87;66.27;99845.74;1753939;80;21416;-60
2022/08/12 09:29:15;;;;;;;11.88;9.20;;;;;;;30.00;67.16;99857.30;1755374;80;21419;-60
2022/08/12 09:31:41;;;;;;;13.65;9.55;;;;;;;30.12;67.01;99861.73;1757892;80;21816;-60
2022/08/12 09:34:09;;;;;;;14.47;8.73;;;;;;;30.17;66.29;99864.72;1756096;80;21897;-62
2022/08/12 09:36:38;;;;;;;11.78;9.58;;;;;;;30.24;66.23;99859.72;1744104;80;21520;-61
2022/08/12 09:39:06;;;;;;;12.37;9.15;;;;;;;30.28;65.53;99852.05;1748018;80;21590;-60
2022/08/12 09:41:44;;;;;;;16.30;9.20;;;;;;;30.31;65.35;99869.80;1708309;82;21590;-58
2022/08/12 09:46:56;;;;;;;10.13;9.23;;;;;;;30.38;64.67;99855.84;1751270;80;21383;-60
2022/08/12 09:49:27;;;;;;;13.62;9.08;;;;;;;30.45;64.95;99860.84;1755395;80;21538;-60
2022/08/12 09:51:53;;;;;;;10.60;9.48;;;;;;;30.58;65.84;99865.59;1758803;80;21041;-61
2022/08/12 09:54:24;;;;;;;9.93;8.93;;;;;;;30.73;64.60;99864.20;1755879;80;21511;-59
2022/08/12 09:56:48;;;;;;;12.90;9.70;;;;;;;30.76;63.83;99857.88;1756765;79;21415;-58
2022/08/12 09:59:17;;;;;;;10.00;9.08;;;;;;;30.75;63.60;99857.54;1759010;80;21531;-60
2022/08/12 10:01:43;;;;;;;11.25;9.08;;;;;;;30.75;63.73;99844.50;1760375;80;20967;-60
2022/08/12 10:04:10;;;;;;;12.47;9.17;;;;;;;30.74;63.11;99856.37;1751897;80;21535;-58
2022/08/12 10:06:37;;;;;;;16.30;9.35;;;;;;;30.68;63.72;99867.47;1749919;80;21711;-57
2022/08/12 10:09:05;;;;;;;12.68;9.30;;;;;;;30.62;63.81;99866.36;1752269;80;21790;-58
2022/08/12 10:14:18;;;;;;;12.90;8.78;;;;;;;30.54;63.98;99880.58;1747245;80;21547;-58
2022/08/12 10:16:44;;;;;;;10.90;9.18;;;;;;;30.32;64.45;99881.85;1755182;80;21471;-57
2022/08/12 10:19:11;;;;;;;11.00;8.70;;;;;;;30.15;65.17;99879.81;1758992;80;21538;-59
2022/08/12 10:21:40;;;;;;;11.97;9.98;;;;;;;29.88;66.12;99883.50;1719414;81;21755;-58
2022/08/12 10:24:17;;;;;;;9.88;8.95;;;;;;;29.68;67.61;99895.86;1754041;80;21569;-61
2022/08/12 10:30:21;;;;;;;11.38;9.90;;;;;;;28.61;73.89;99925.50;1790567;78;23130;-58
2022/08/12 10:32:57;;;;;;;12.75;9.68;;;;;;;29.02;70.71;99918.53;1768089;79;20938;-58
2022/08/12 10:35:31;;;;;;;12.05;10.20;;;;;;;28.94;71.66;99923.48;1760410;79;21816;-59
2022/08/12 10:37:54;;;;;;;9.43;8.58;;;;;;;28.86;72.58;99916.77;1767528;79;21532;-59
2022/08/12 10:40:21;;;;;;;10.93;9.18;;;;;;;28.77;73.10;99915.13;1767277;79;21451;-60
2022/08/12 10:45:32;;;;;;;9.60;8.68;;;;;;;28.68;74.73;99925.97;1764875;80;21090;-59
2022/08/12 10:48:00;;;;;;;10.95;8.48;;;;;;;28.64;75.50;99934.11;1765724;79;21754;-59
2022/08/12 10:50:27;;;;;;;10.38;9.38;;;;;;;28.69;75.65;99931.73;1760467;79;21674;-59
2022/08/12 10:52:53;;;;;;;10.10;8.93;;;;;;;28.65;75.33;99926.34;1762710;80;21499;-60
2022/08/12 10:55:20;;;;;;;12.10;9.40;;;;;;;28.65;75.19;99923.64;1760645;80;20986;-60
2022/08/12 10:57:47;;;;;;;11.27;9.13;;;;;;;28.63;75.41;99927.03;1765992;79;21032;-59
2022/08/12 11:00:14;;;;;;;10.50;9.60;;;;;;;28.68;75.44;99925.14;1768909;80;21934;-59
2022/08/12 11:02:55;;;;;;;10.70;9.30;;;;;;;28.69;76.33;99930.38;1766632;79;21451;-60
2022/08/12 11:05:22;;;;;;;13.70;10.18;;;;;;;28.75;76.23;99928.83;1768682;79;21510;-59
2022/08/12 11:07:49;;;;;;;10.10;9.10;;;;;;;28.80;75.65;99918.33;1766090;80;21521;-59
2022/08/12 11:10:17;;;;;;;10.43;9.43;;;;;;;28.86;75.19;99914.91;1733372;81;21595;-60
2022/08/12 11:12:47;;;;;;;14.15;9.53;;;;;;;28.78;74.55;99912.22;1719123;82;21948;-60
2022/08/12 11:15:17;;;;;;;10.32;9.38;;;;;;;28.77;75.02;99916.48;1711828;82;21525;-59
2022/08/12 11:17:44;;;;;;;11.50;9.15;;;;;;;28.73;75.38;99901.95;1722350;82;21609;-58
2022/08/12 11:20:10;;;;;;;12.20;10.08;;;;;;;28.68;75.66;99875.93;1712878;82;21115;-58
2022/08/12 11:22:37;;;;;;;10.32;9.43;;;;;;;28.63;75.77;99868.88;1723049;82;21568;-58
2022/08/12 11:25:08;;;;;;;12.58;9.88;;;;;;;28.57;77.38;99875.49;1718405;82;21884;-58
2022/08/12 11:27:35;;;;;;;19.17;9.13;;;;;;;28.63;77.19;99876.12;1720080;82;21578;-59
2022/08/12 11:30:02;;;;;;;10.43;9.08;;;;;;;28.67;76.16;99877.45;1702004;82;21657;-59
2022/08/12 11:32:29;;;;;;;12.47;9.35;;;;;;;28.67;75.44;99890.48;1703143;82;21547;-59
2022/08/12 11:34:56;;;;;;;10.30;9.38;;;;;;;28.64;75.16;99894.89;1709159;83;21489;-59
2022/08/12 11:37:23;;;;;;;20.27;10.37;;;;;;;28.66;75.32;99900.96;1701531;83;21836;-59
2022/08/12 11:39:49;;;;;;;11.97;9.45;;;;;;;28.63;75.70;99901.34;1697270;83;21546;-59
2022/08/12 11:42:17;;;;;;;15.85;9.60;;;;;;;28.61;75.33;99896.58;1701916;83;21679;-59
2022/08/12 11:44:43;;;;;;;14.43;8.78;;;;;;;28.69;75.44;99888.97;1700693;82;21511;-60
2022/08/12 11:47:10;;;;;;;15.13;9.23;;;;;;;28.81;74.99;99894.30;1711182;83;21508;-59
2022/08/12 11:49:37;;;;;;;13.93;9.78;;;;;;;28.86;75.18;99892.42;1701363;83;21953;-59
2022/08/12 11:52:04;;;;;;;10.90;10.00;;;;;;;28.89;75.10;99887.98;1705583;83;21026;-59
2022/08/12 11:54:31;;;;;;;;;;;;;;;28.90;75.12;99888.33;1699219;83;21491;-60
2022/08/12 11:56:59;;;;;;;12.30;9.40;;;;;;;28.91;76.06;99896.27;1704740;83;20432;-59
2022/08/12 11:59:25;;;;;;;10.80;9.68;;;;;;;28.92;75.50;99902.00;1705612;83;21584;-59
2022/08/12 12:01:52;;;;;;;12.40;9.35;;;;;;;28.98;75.69;99900.45;1704928;82;21593;-59
2022/08/12 12:04:18;;;;;;;9.60;8.77;;;;;;;28.98;76.78;99903.16;1701991;83;21649;-59
2022/08/12 12:06:45;;;;;;;11.40;9.48;;;;;;;29.01;76.66;99908.22;1754596;80;21514;-59
2022/08/12 12:09:12;;;;;;;11.20;9.87;;;;;;;28.99;76.02;99898.09;1752961;80;21564;-62
2022/08/12 12:11:38;;;;;;;11.88;9.63;;;;;;;28.94;76.75;99900.48;1763518;80;21577;-60
2022/08/12 12:14:05;;;;;;;15.13;10.43;;;;;;;28.88;77.52;99903.91;1755472;80;21903;-59
2022/08/12 12:16:32;;;;;;;13.35;9.85;;;;;;;28.79;77.61;99909.03;1763135;80;21599;-60
2022/08/12 12:18:59;;;;;;;12.00;10.05;;;;;;;28.79;77.01;99905.80;1760770;80;21525;-59
2022/08/12 12:21:25;;;;;;;16.63;10.40;;;;;;;28.75;76.52;99907.70;1769046;80;21554;-60
2022/08/12 12:23:53;;;;;;;16.20;9.83;;;;;;;28.71;76.64;99911.27;1760011;80;21560;-59
2022/08/12 12:26:19;;;;;;;12.90;9.75;;;;;;;28.76;77.11;99906.66;1757285;80;21949;-60
2022/08/12 12:28:46;;;;;;;13.58;10.38;;;;;;;28.83;77.43;99908.48;1760727;80;21530;-59
2022/08/12 12:31:12;;;;;;;11.03;9.60;;;;;;;28.89;77.33;99903.70;1757286;79;21542;-59
2022/08/12 12:33:39;;;;;;;12.30;9.83;;;;;;;28.95;77.14;99906.72;1763803;79;21451;-59
2022/08/12 12:36:07;;;;;;;10.55;9.55;;;;;;;29.00;76.83;99903.81;1768380;78;21787;-60
2022/08/12 12:38:34;;;;;;;11.60;10.05;;;;;;;29.11;75.55;99904.75;1762050;79;21534;-59
2022/08/12 12:41:00;;;;;;;13.83;10.18;;;;;;;29.14;75.44;99898.19;1756645;79;21481;-59
2022/08/12 12:43:27;;;;;;;10.75;9.60;;;;;;;29.19;75.08;99897.11;1764299;79;21005;-60
2022/08/12 12:45:54;;;;;;;13.98;9.93;;;;;;;29.21;75.90;99898.30;1757405;80;21570;-60
2022/08/12 12:48:20;;;;;;;13.70;10.25;;;;;;;29.28;74.81;99896.55;1756581;79;21435;-64
2022/08/12 12:51:55;;;;;;;11.48;10.32;;;;;;;29.40;73.46;99884.25;1759806;80;21830;-60
2022/08/12 12:53:32;;;;;;;16.57;10.60;;;;;;;29.56;72.60;99870.26;1717602;80;21670;-60
2022/08/12 12:55:58;;;;;;;21.02;10.80;;;;;;;29.81;71.53;99866.81;1761347;80;21463;-60
2022/08/12 12:58:25;;;;;;;14.87;10.15;;;;;;;29.87;70.87;99864.19;1757774;80;21628;-60
2022/08/12 13:00:52;;;;;;;14.58;10.88;;;;;;;29.94;70.38;99864.83;1762319;79;21057;-60
2022/08/12 13:03:21;;;;;;;12.15;10.65;;;;;;;30.01;69.55;99864.41;1765820;79;22108;-60
2022/08/12 13:05:49;;;;;;;14.40;11.35;;;;;;;30.00;69.53;99863.55;1756731;80;21493;-59
2022/08/12 13:08:26;;;;;;;14.43;11.25;;;;;;;30.02;68.86;99868.79;1760547;80;21536;-60
2022/08/12 13:10:54;;;;;;;13.98;11.20;;;;;;;29.97;68.16;99863.94;1775534;79;21530;-58
2022/08/12 13:13:20;;;;;;;13.48;11.48;;;;;;;29.87;68.01;99877.73;1758195;79;20944;-58
2022/08/12 13:15:48;;;;;;;14.65;12.20;;;;;;;29.78;68.47;99885.66;1764824;79;21911;-58
2022/08/12 13:18:19;;;;;;;13.43;12.13;;;;;;;29.76;69.06;99883.64;1749804;79;21495;-58
2022/08/12 13:20:45;;;;;;;13.35;11.95;;;;;;;29.72;69.42;99887.69;1763661;79;21490;-59
2022/08/12 13:23:18;;;;;;;11.40;10.38;;;;;;;29.66;69.99;99889.80;1759014;79;21550;-59
2022/08/12 13:25:46;;;;;;;13.13;10.75;;;;;;;29.69;70.74;99882.14;1762372;79;21601;-59